createdAt,value
2023-01-28T00:00:54.634Z,19.05
2023-01-28T00:03:21.297Z,20.45
2023-01-28T00:05:47.748Z,18.27
2023-01-28T00:08:14.717Z,22.48
2023-01-28T00:10:43.139Z,20.20
2023-01-28T00:13:14.497Z,22.60
2023-01-28T00:15:40.972Z,20.05
2023-01-28T00:18:07.425Z,22.88
2023-01-28T00:20:35.287Z,26.48
2023-01-28T00:23:02.013Z,23.27
2023-01-28T00:25:28.403Z,23.67
2023-01-28T00:27:55.217Z,19.77
2023-01-28T00:30:21.919Z,23.55
2023-01-28T00:32:48.308Z,23.27
2023-01-28T00:35:15.477Z,21.10
2023-01-28T00:37:42.150Z,21.95
2023-01-28T00:40:10.016Z,21.13
2023-01-28T00:42:37.315Z,22.50
2023-01-28T00:45:04.094Z,20.58
2023-01-28T00:47:30.482Z,21.98
2023-01-28T00:49:57.220Z,19.85
2023-01-28T00:52:23.657Z,19.73
2023-01-28T00:54:50.043Z,23.83
2023-01-28T00:57:16.443Z,21.75
2023-01-28T00:59:43.683Z,21.33
2023-01-28T01:02:13.177Z,19.85
2023-01-28T01:04:40.852Z,20.48
2023-01-28T01:07:07.444Z,19.77
2023-01-28T01:09:33.838Z,21.92
2023-01-28T01:12:00.267Z,23.50
2023-01-28T01:14:26.934Z,21.05
2023-01-28T01:16:53.410Z,19.75
2023-01-28T01:19:19.837Z,19.25
2023-01-28T01:21:50.324Z,19.17
2023-01-28T01:24:17.146Z,19.70
2023-01-28T01:26:43.628Z,20.73
2023-01-28T01:29:10.132Z,19.45
2023-01-28T01:31:36.605Z,20.48
2023-01-28T01:34:03.096Z,20.75
2023-01-28T01:36:29.612Z,18.95
2023-01-28T01:38:56.459Z,26.50
2023-01-28T01:41:29.922Z,18.83
2023-01-28T01:44:02.042Z,19.00
2023-01-28T01:46:31.275Z,20.65
2023-01-28T01:49:07.732Z,22.60
2023-01-28T01:51:36.384Z,20.63
2023-01-28T01:54:04.152Z,23.73
2023-01-28T01:56:35.744Z,20.85
2023-01-28T02:01:31.884Z,19.95
2023-01-28T02:04:12.793Z,22.13
2023-01-28T02:06:40.935Z,21.13
2023-01-28T02:09:25.817Z,20.35
2023-01-28T02:11:59.486Z,21.48
2023-01-28T02:14:31.331Z,20.98
2023-01-28T02:17:00.146Z,19.98
2023-01-28T02:19:34.398Z,19.83
2023-01-28T02:22:05.644Z,18.48
2023-01-28T02:25:05.698Z,21.88
2023-01-28T02:28:04.640Z,32.92
2023-01-28T02:30:40.749Z,27.95
2023-01-28T02:33:52.487Z,25.92
2023-01-28T02:36:32.865Z,25.13
2023-01-28T02:39:07.794Z,24.38
2023-01-28T02:41:43.351Z,22.20
2023-01-28T02:44:09.774Z,24.13
2023-01-28T02:46:56.581Z,20.95
2023-01-28T02:49:43.614Z,20.48
2023-01-28T02:52:45.765Z,21.55
2023-01-28T02:55:45.818Z,22.15
2023-01-28T02:58:44.912Z,21.85
2023-01-28T03:01:38.823Z,20.60
2023-01-28T03:04:15.220Z,20.52
2023-01-28T03:06:48.310Z,19.27
2023-01-28T03:09:25.649Z,20.73
2023-01-28T03:12:13.509Z,21.77
2023-01-28T03:15:00.433Z,21.17
2023-01-28T03:17:54.796Z,18.75
2023-01-28T03:20:43.695Z,19.42
2023-01-28T03:23:33.627Z,19.45
2023-01-28T03:26:20.276Z,20.20
2023-01-28T03:29:07.807Z,21.08
2023-01-28T03:31:55.407Z,20.05
2023-01-28T03:34:41.220Z,21.33
2023-01-28T03:37:08.902Z,21.65
2023-01-28T03:39:36.100Z,20.40
2023-01-28T03:42:11.905Z,21.27
2023-01-28T03:44:53.221Z,21.75
2023-01-28T03:47:22.995Z,20.70
2023-01-28T03:49:51.342Z,23.45
2023-01-28T03:52:21.644Z,21.67
2023-01-28T03:54:48.631Z,22.95
2023-01-28T03:57:16.939Z,20.75
2023-01-28T03:59:43.679Z,21.13
2023-01-28T04:02:13.525Z,23.52
2023-01-28T04:04:40.705Z,22.02
2023-01-28T04:07:08.848Z,20.67
2023-01-28T04:09:38.653Z,24.15
2023-01-28T04:12:05.794Z,22.52
2023-01-28T04:14:32.764Z,22.80
2023-01-28T04:16:59.413Z,21.48
2023-01-28T04:19:25.993Z,24.23
2023-01-28T04:21:56.627Z,24.58
2023-01-28T04:24:23.555Z,23.33
2023-01-28T04:26:50.273Z,21.63
2023-01-28T04:29:16.812Z,24.90
2023-01-28T04:31:43.329Z,24.40
2023-01-28T04:34:10.093Z,29.63
2023-01-28T04:36:36.552Z,23.40
2023-01-28T04:39:03.209Z,24.08
2023-01-28T04:41:30.771Z,23.23
2023-01-28T04:43:57.244Z,22.40
2023-01-28T04:46:23.753Z,23.27
2023-01-28T04:48:50.221Z,30.95
2023-01-28T04:51:16.633Z,33.33
2023-01-28T04:53:43.099Z,36.97
2023-01-28T04:56:09.514Z,26.67
2023-01-28T04:58:36.120Z,24.02
2023-01-28T05:01:02.677Z,21.67
2023-01-28T05:03:29.279Z,24.52
2023-01-28T05:05:55.746Z,23.55
2023-01-28T05:08:22.460Z,25.88
2023-01-28T05:10:48.877Z,30.92
2023-01-28T05:13:15.379Z,29.85
2023-01-28T05:15:41.852Z,33.80
2023-01-28T05:18:08.320Z,30.58
2023-01-28T05:20:34.745Z,28.05
2023-01-28T05:23:01.331Z,28.85
2023-01-28T05:25:27.782Z,23.33
2023-01-28T05:27:54.603Z,29.80
2023-01-28T05:30:21.843Z,30.05
2023-01-28T05:32:48.551Z,29.10
2023-01-28T05:35:15.390Z,25.13
2023-01-28T05:37:42.069Z,21.75
2023-01-28T05:40:09.155Z,21.88
2023-01-28T05:42:35.603Z,23.70
2023-01-28T05:45:02.026Z,22.77
2023-01-28T05:47:28.429Z,21.08
2023-01-28T05:49:54.857Z,23.33
2023-01-28T05:52:21.244Z,19.67
2023-01-28T05:54:47.709Z,20.63
2023-01-28T05:57:14.131Z,20.13
2023-01-28T05:59:40.616Z,23.35
2023-01-28T06:02:07.087Z,23.40
2023-01-28T06:04:33.729Z,20.20
2023-01-28T06:07:00.142Z,22.00
2023-01-28T06:09:26.545Z,20.98
2023-01-28T06:11:53.176Z,19.92
2023-01-28T06:14:19.573Z,19.58
2023-01-28T06:16:46.025Z,20.60
2023-01-28T06:19:12.606Z,22.20
2023-01-28T06:21:39.045Z,21.50
2023-01-28T06:24:19.025Z,22.77
2023-01-28T06:26:48.851Z,21.75
2023-01-28T06:29:35.478Z,23.50
2023-01-28T06:32:01.914Z,21.73
2023-01-28T06:34:35.661Z,23.17
2023-01-28T06:37:07.228Z,22.38
2023-01-28T06:39:33.892Z,22.52
2023-01-28T06:42:00.770Z,19.40
2023-01-28T06:44:27.242Z,23.00
2023-01-28T06:46:53.694Z,23.17
2023-01-28T06:49:21.373Z,25.02
2023-01-28T06:52:00.227Z,27.85
2023-01-28T06:54:36.260Z,45.00
2023-01-28T06:57:02.694Z,33.67
2023-01-28T06:59:29.184Z,31.20
2023-01-28T07:02:34.277Z,31.77
2023-01-28T07:05:10.494Z,36.67
2023-01-28T07:07:37.160Z,33.08
2023-01-28T07:10:03.926Z,27.88
2023-01-28T07:12:30.498Z,30.08
2023-01-28T07:14:56.953Z,22.77
2023-01-28T07:17:23.469Z,23.48
2023-01-28T07:19:49.916Z,24.67
2023-01-28T07:22:16.382Z,24.75
2023-01-28T07:24:42.874Z,28.27
2023-01-28T07:27:09.349Z,27.38
2023-01-28T07:29:35.767Z,24.27
2023-01-28T07:32:02.389Z,28.55
2023-01-28T07:34:28.850Z,25.98
2023-01-28T07:36:57.351Z,24.70
2023-01-28T07:39:33.020Z,24.95
2023-01-28T07:41:59.529Z,24.33
2023-01-28T07:44:25.949Z,23.75
2023-01-28T07:46:52.490Z,26.02
2023-01-28T07:49:19.045Z,28.55
2023-01-28T07:51:50.553Z,39.88
2023-01-28T07:54:17.397Z,51.80
2023-01-28T07:56:43.839Z,52.58
2023-01-28T07:59:18.819Z,50.95
2023-01-28T08:01:45.283Z,32.15
2023-01-28T08:04:11.981Z,28.83
2023-01-28T08:06:38.445Z,27.25
2023-01-28T08:09:12.279Z,28.67
2023-01-28T08:11:42.333Z,28.73
2023-01-28T08:14:11.028Z,37.92
2023-01-28T08:16:37.461Z,32.45
2023-01-28T08:19:03.960Z,35.35
2023-01-28T08:21:30.487Z,31.48
2023-01-28T08:23:57.082Z,32.88
2023-01-28T08:26:23.709Z,37.22
2023-01-28T08:28:51.592Z,32.35
2023-01-28T08:31:18.578Z,29.13
2023-01-28T08:33:45.048Z,28.88
2023-01-28T08:36:11.543Z,28.75
2023-01-28T08:38:37.948Z,25.52
2023-01-28T08:41:04.558Z,25.77
2023-01-28T08:43:30.964Z,26.58
2023-01-28T08:45:57.451Z,23.85
2023-01-28T08:48:23.909Z,25.92
2023-01-28T08:50:50.858Z,26.45
2023-01-28T08:53:19.735Z,23.17
2023-01-28T08:55:46.849Z,23.45
2023-01-28T08:58:15.605Z,23.40
2023-01-28T09:00:43.372Z,23.42
2023-01-28T09:03:09.860Z,25.45
2023-01-28T09:05:37.748Z,23.25
2023-01-28T09:08:06.318Z,21.92
2023-01-28T09:10:32.743Z,24.08
2023-01-28T09:12:59.330Z,24.70
2023-01-28T09:15:25.735Z,25.52
2023-01-28T09:17:57.802Z,25.90
2023-01-28T09:20:24.192Z,22.17
2023-01-28T09:22:50.642Z,21.48
2023-01-28T09:25:17.047Z,20.52
2023-01-28T09:27:43.689Z,23.15
2023-01-28T09:30:10.690Z,23.70
2023-01-28T09:32:37.197Z,23.75
2023-01-28T09:35:03.817Z,22.10
2023-01-28T09:37:30.263Z,22.58
2023-01-28T09:39:57.105Z,23.98
2023-01-28T09:42:45.639Z,21.23
2023-01-28T09:45:27.770Z,20.70
2023-01-28T09:47:56.977Z,20.67
2023-01-28T09:50:30.976Z,23.05
2023-01-28T09:53:04.669Z,23.77
2023-01-28T09:55:36.634Z,19.63
2023-01-28T09:58:08.875Z,21.63
2023-01-28T10:04:13.783Z,19.55
2023-01-28T10:07:18.143Z,16.85
2023-01-28T10:10:26.256Z,18.55
2023-01-28T10:13:21.891Z,16.90
2023-01-28T10:16:05.223Z,20.25
2023-01-28T10:18:57.278Z,18.00
2023-01-28T10:21:38.262Z,16.73
2023-01-28T10:24:29.685Z,15.85
2023-01-28T10:26:56.724Z,18.58
2023-01-28T10:29:38.420Z,19.10
2023-01-28T10:35:06.069Z,18.15
2023-01-28T10:37:35.631Z,17.25
2023-01-28T10:40:04.268Z,18.63
2023-01-28T10:42:47.011Z,19.55
2023-01-28T10:45:23.856Z,18.23
2023-01-28T10:48:04.221Z,19.25
2023-01-28T10:50:32.601Z,17.20
2023-01-28T10:53:01.579Z,19.73
2023-01-28T10:55:32.146Z,19.73
2023-01-28T10:57:59.281Z,20.63
2023-01-28T11:00:30.666Z,19.98
2023-01-28T11:03:01.827Z,19.10
2023-01-28T11:05:31.460Z,17.85
2023-01-28T11:08:07.016Z,21.33
2023-01-28T11:10:37.260Z,19.33
2023-01-28T11:13:05.963Z,21.67
2023-01-28T11:15:33.098Z,20.80
2023-01-28T11:18:08.409Z,22.35
2023-01-28T11:20:40.628Z,18.77
2023-01-28T11:23:07.101Z,21.77
2023-01-28T11:25:35.974Z,20.83
2023-01-28T11:28:08.109Z,19.23
2023-01-28T11:30:37.663Z,21.30
2023-01-28T11:33:23.650Z,19.60
2023-01-28T11:36:12.568Z,20.38
2023-01-28T11:38:57.284Z,22.67
2023-01-28T11:41:38.878Z,21.48
2023-01-28T11:47:05.448Z,21.90
2023-01-28T11:50:07.596Z,20.47
2023-01-28T11:53:12.541Z,20.05
2023-01-28T11:58:42.197Z,17.95
2023-01-28T12:01:21.763Z,23.38
2023-01-28T12:04:19.039Z,25.33
2023-01-28T12:07:21.780Z,25.80
2023-01-28T12:09:55.733Z,23.48
2023-01-28T12:12:59.953Z,20.23
2023-01-28T12:15:38.690Z,19.92
2023-01-28T12:18:17.206Z,21.13
2023-01-28T12:20:52.691Z,30.65
2023-01-28T12:23:43.794Z,24.90
2023-01-28T12:26:16.426Z,21.35
2023-01-28T12:29:18.070Z,20.08
2023-01-28T12:31:53.505Z,19.77
2023-01-28T12:34:31.701Z,19.50
2023-01-28T12:37:13.316Z,20.27
2023-01-28T12:42:38.841Z,20.40
2023-01-28T12:45:20.583Z,19.60
2023-01-28T12:48:08.100Z,22.55
2023-01-28T12:50:43.493Z,19.92
2023-01-28T12:53:18.891Z,21.05
2023-01-28T12:55:54.487Z,19.42
2023-01-28T12:58:35.821Z,19.38
2023-01-28T13:01:08.498Z,20.40
2023-01-28T13:03:58.130Z,21.75
2023-01-28T13:06:38.370Z,19.05
2023-01-28T13:09:17.553Z,20.88
2023-01-28T13:11:45.307Z,22.13
2023-01-28T13:14:13.151Z,18.70
2023-01-28T13:16:39.876Z,20.40
2023-01-28T13:19:35.636Z,19.67
2023-01-28T13:22:25.629Z,20.45
2023-01-28T13:24:52.177Z,19.50
2023-01-28T13:27:27.860Z,18.45
2023-01-28T13:30:22.497Z,21.98
2023-01-28T13:32:57.105Z,17.52
2023-01-28T13:35:54.023Z,18.52
2023-01-28T13:38:21.675Z,16.35
2023-01-28T13:40:57.055Z,17.25
2023-01-28T13:43:41.484Z,17.73
2023-01-28T13:46:28.326Z,16.30
2023-01-28T13:48:57.470Z,17.20
2023-01-28T13:51:35.759Z,16.27
2023-01-28T13:54:20.975Z,17.73
2023-01-28T13:56:59.591Z,17.90
2023-01-28T13:59:44.818Z,16.95
2023-01-28T14:02:32.585Z,18.13
2023-01-28T14:05:17.772Z,17.02
2023-01-28T14:08:22.730Z,17.75
2023-01-28T14:11:04.546Z,16.63
2023-01-28T14:13:40.938Z,31.77
2023-01-28T14:16:19.460Z,21.60
2023-01-28T14:18:48.294Z,17.35
2023-01-28T14:21:22.301Z,17.42
2023-01-28T14:23:52.753Z,16.48
2023-01-28T14:26:34.609Z,15.35
2023-01-28T14:29:25.081Z,15.30
2023-01-28T14:31:52.913Z,15.20
2023-01-28T14:34:32.753Z,17.50
2023-01-28T14:37:04.472Z,16.77
2023-01-28T14:39:38.313Z,15.18
2023-01-28T14:42:05.151Z,15.82
2023-01-28T14:44:41.657Z,16.30
2023-01-28T14:47:35.177Z,15.18
2023-01-28T14:50:15.940Z,13.32
2023-01-28T14:53:04.418Z,15.38
2023-01-28T14:55:56.228Z,15.00
2023-01-28T15:01:20.360Z,15.43
2023-01-28T15:03:46.879Z,16.70
2023-01-28T15:06:16.579Z,15.55
2023-01-28T15:08:43.157Z,13.02
2023-01-28T15:11:14.264Z,15.60
2023-01-28T15:13:44.664Z,14.40
2023-01-28T15:16:20.431Z,13.25
2023-01-28T15:18:48.641Z,14.07
2023-01-28T15:21:20.116Z,13.23
2023-01-28T15:26:22.495Z,13.10
2023-01-28T15:28:49.733Z,13.63
2023-01-28T15:31:25.049Z,14.23
2023-01-28T15:34:03.456Z,14.23
2023-01-28T15:36:31.708Z,15.00
2023-01-28T15:38:58.556Z,15.05
2023-01-28T15:41:32.357Z,14.30
2023-01-28T15:43:59.022Z,13.70
2023-01-28T15:46:25.947Z,13.88
2023-01-28T15:49:14.999Z,14.52
2023-01-28T15:51:41.480Z,12.70
2023-01-28T15:54:09.963Z,16.45
2023-01-28T15:56:36.762Z,17.10
2023-01-28T15:59:18.428Z,16.85
2023-01-28T16:04:27.106Z,16.95
2023-01-28T16:06:57.243Z,18.90
2023-01-28T16:09:38.288Z,19.45
2023-01-28T16:12:11.101Z,24.15
2023-01-28T16:14:49.752Z,20.17
2023-01-28T16:17:32.549Z,20.40
2023-01-28T16:20:11.536Z,18.80
2023-01-28T16:22:48.293Z,16.40
2023-01-28T16:25:35.561Z,18.05
2023-01-28T16:28:17.185Z,17.20
2023-01-28T16:33:23.344Z,15.35
2023-01-28T16:36:06.580Z,14.93
2023-01-28T16:38:37.984Z,17.88
2023-01-28T16:41:22.297Z,19.40
2023-01-28T16:43:48.730Z,20.73
2023-01-28T16:46:15.180Z,19.23
2023-01-28T16:48:44.695Z,18.45
2023-01-28T16:51:37.759Z,18.73
2023-01-28T16:54:05.170Z,19.55
2023-01-28T16:56:45.512Z,38.20
2023-01-28T16:59:14.876Z,37.38
2023-01-28T17:01:41.742Z,37.88
2023-01-28T17:04:12.796Z,29.67
2023-01-28T17:06:42.897Z,28.90
2023-01-28T17:09:10.739Z,31.88
2023-01-28T17:11:37.176Z,34.58
2023-01-28T17:14:03.604Z,36.13
2023-01-28T17:16:30.130Z,39.13
2023-01-28T17:18:56.644Z,37.85
2023-01-28T17:21:23.417Z,34.25
2023-01-28T17:23:49.875Z,32.42
2023-01-28T17:26:17.013Z,34.83
2023-01-28T17:28:44.296Z,29.88
2023-01-28T17:31:13.477Z,35.10
2023-01-28T17:33:42.814Z,27.30
2023-01-28T17:36:09.863Z,25.08
2023-01-28T17:38:36.666Z,25.65
2023-01-28T17:41:08.422Z,28.45
2023-01-28T17:43:35.212Z,29.20
2023-01-28T17:46:09.831Z,25.00
2023-01-28T17:48:36.431Z,27.63
2023-01-28T17:51:03.064Z,28.80
2023-01-28T17:53:30.029Z,31.17
2023-01-28T17:55:56.804Z,28.67
2023-01-28T17:58:23.395Z,27.63
2023-01-28T18:00:52.887Z,29.40
2023-01-28T18:03:19.386Z,30.02
2023-01-28T18:05:57.290Z,29.10
2023-01-28T18:08:24.041Z,28.30
2023-01-28T18:10:50.450Z,28.55
2023-01-28T18:13:17.107Z,35.25
2023-01-28T18:15:43.536Z,32.65
2023-01-28T18:18:10.061Z,40.47
2023-01-28T18:20:36.564Z,36.72
2023-01-28T18:23:03.052Z,37.22
2023-01-28T18:25:29.508Z,41.92
2023-01-28T18:27:55.945Z,38.85
2023-01-28T18:30:22.393Z,40.97
2023-01-28T18:32:48.823Z,38.95
2023-01-28T18:35:15.588Z,41.15
2023-01-28T18:37:42.276Z,48.17
2023-01-28T18:40:09.554Z,43.90
2023-01-28T18:42:37.567Z,43.47
2023-01-28T18:45:04.951Z,42.97
2023-01-28T18:47:31.400Z,46.97
2023-01-28T18:49:57.809Z,50.40
2023-01-28T18:52:24.429Z,47.83
2023-01-28T18:54:50.847Z,46.50
2023-01-28T18:57:17.285Z,48.10
2023-01-28T18:59:43.710Z,43.85
2023-01-28T19:02:13.680Z,42.53
2023-01-28T19:04:40.114Z,43.35
2023-01-28T19:07:08.139Z,37.42
2023-01-28T19:09:34.919Z,39.40
2023-01-28T19:12:01.576Z,42.83
2023-01-28T19:14:27.986Z,40.10
2023-01-28T19:16:54.509Z,44.95
2023-01-28T19:19:21.716Z,41.85
2023-01-28T19:21:48.117Z,43.63
2023-01-28T19:24:14.568Z,46.33
2023-01-28T19:26:42.081Z,46.15
2023-01-28T19:29:10.627Z,47.55
2023-01-28T19:31:38.426Z,48.38
2023-01-28T19:34:05.728Z,43.50
2023-01-28T19:36:33.524Z,41.90
2023-01-28T19:39:02.540Z,42.20
2023-01-28T19:41:29.438Z,44.85
2023-01-28T19:43:57.039Z,41.10
2023-01-28T19:46:23.621Z,39.70
2023-01-28T19:48:50.135Z,40.00
2023-01-28T19:51:17.566Z,38.25
2023-01-28T19:53:45.292Z,35.92
2023-01-28T19:56:14.647Z,30.85
2023-01-28T19:58:43.030Z,25.60
2023-01-28T20:01:12.299Z,27.25
2023-01-28T20:03:39.192Z,29.88
2023-01-28T20:06:10.359Z,31.52
2023-01-28T20:08:36.824Z,39.28
2023-01-28T20:11:23.646Z,50.28
2023-01-28T20:13:51.692Z,46.60
2023-01-28T20:16:30.013Z,45.83
2023-01-28T20:19:01.824Z,38.85
2023-01-28T20:21:29.790Z,37.75
2023-01-28T20:23:57.758Z,30.33
2023-01-28T20:26:26.790Z,23.75
2023-01-28T20:28:53.205Z,22.77
2023-01-28T20:31:20.606Z,25.45
2023-01-28T20:33:47.244Z,25.45
2023-01-28T20:36:14.576Z,25.55
2023-01-28T20:38:46.009Z,24.67
2023-01-28T20:41:15.233Z,20.00
2023-01-28T20:43:43.376Z,23.35
2023-01-28T20:46:16.357Z,23.67
2023-01-28T20:48:42.831Z,27.38
2023-01-28T20:51:18.601Z,24.10
2023-01-28T20:53:46.062Z,29.15
2023-01-28T20:56:14.375Z,26.90
2023-01-28T20:58:41.339Z,28.58
2023-01-28T21:01:07.794Z,29.58
2023-01-28T21:03:34.351Z,42.90
2023-01-28T21:06:00.793Z,44.08
2023-01-28T21:08:27.215Z,48.03
2023-01-28T21:10:53.633Z,50.00
2023-01-28T21:13:20.012Z,48.33
2023-01-28T21:15:57.177Z,49.78
2023-01-28T21:18:24.519Z,44.47
2023-01-28T21:20:53.562Z,44.30
2023-01-28T21:23:23.723Z,48.15
2023-01-28T21:25:51.501Z,47.33
2023-01-28T21:28:20.951Z,45.10
2023-01-28T21:30:47.638Z,43.42
2023-01-28T21:33:17.220Z,37.75
2023-01-28T21:35:43.703Z,37.20
2023-01-28T21:38:10.667Z,31.88
2023-01-28T21:40:37.729Z,26.35
2023-01-28T21:43:05.489Z,29.45
2023-01-28T21:45:34.520Z,36.50
2023-01-28T21:48:00.946Z,32.00
2023-01-28T21:50:27.443Z,37.78
2023-01-28T21:52:53.881Z,38.10
2023-01-28T21:55:20.499Z,38.15
2023-01-28T21:57:47.111Z,39.60
2023-01-28T22:00:14.083Z,43.03
2023-01-28T22:02:43.743Z,40.42
2023-01-28T22:05:10.209Z,37.83
2023-01-28T22:07:36.816Z,37.78
2023-01-28T22:10:04.059Z,32.20
2023-01-28T22:12:30.559Z,33.20
2023-01-28T22:14:57.138Z,33.10
2023-01-28T22:17:23.660Z,31.20
2023-01-28T22:19:50.172Z,33.05
2023-01-28T22:22:17.597Z,30.02
2023-01-28T22:24:44.100Z,31.92
2023-01-28T22:27:10.608Z,33.58
2023-01-28T22:29:37.021Z,31.98
2023-01-28T22:32:04.723Z,32.05
2023-01-28T22:34:31.534Z,34.60
2023-01-28T22:36:58.100Z,30.00
2023-01-28T22:39:24.624Z,33.42
2023-01-28T22:41:51.206Z,37.58
2023-01-28T22:44:19.713Z,36.40
2023-01-28T22:46:47.160Z,30.55
2023-01-28T22:49:15.064Z,30.60
2023-01-28T22:51:42.204Z,31.25
2023-01-28T22:54:11.785Z,29.67
2023-01-28T22:56:38.346Z,32.97
2023-01-28T22:59:05.908Z,37.63
2023-01-28T23:01:33.028Z,29.88
2023-01-28T23:03:59.739Z,27.65
2023-01-28T23:06:30.611Z,49.50
2023-01-28T23:08:57.088Z,36.25
2023-01-28T23:11:27.642Z,34.22
2023-01-28T23:14:18.547Z,31.92
2023-01-28T23:17:04.425Z,28.35
2023-01-28T23:19:49.759Z,27.27
2023-01-28T23:22:41.049Z,26.52
2023-01-28T23:25:08.279Z,24.25
2023-01-28T23:27:34.997Z,27.40
2023-01-28T23:30:01.487Z,28.13
2023-01-28T23:32:28.197Z,27.95
2023-01-28T23:34:54.800Z,28.17
2023-01-28T23:37:21.246Z,28.35
2023-01-28T23:39:47.708Z,26.52
2023-01-28T23:42:16.742Z,27.35
2023-01-28T23:44:43.866Z,27.13
2023-01-28T23:47:11.096Z,29.15
2023-01-28T23:49:37.960Z,26.83
2023-01-28T23:52:05.600Z,26.95
2023-01-28T23:54:32.458Z,26.30
2023-01-28T23:56:59.674Z,25.65
2023-01-28T23:59:26.698Z,24.80
